Time;durP1;ratioP1;P1;durP2;ratioP2;P2;SDS_P1;SDS_P2;PMS_P1;PMS_P2;Temp;Humidity;BMP_temperature;BMP_pressure;BME280_temperature;BME280_humidity;BME280_pressure;Samples;Min_cycle;Max_cycle;Signal;HPM_P1;HPM_P2
2021/12/25 00:01:46;;;;;;;1.20;1.00;;;-0.30;99.90;;;;;;5015104;28;20053;-79
2021/12/25 00:04:12;;;;;;;2.03;0.85;;;-0.30;99.90;;;;;;5015972;28;20143;-79
2021/12/25 00:06:38;;;;;;;2.85;0.68;;;-0.40;99.90;;;;;;5012723;28;20484;-78
2021/12/25 00:09:05;;;;;;;3.05;0.90;;;-0.40;99.90;;;;;;5015744;28;20067;-79
2021/12/25 00:11:31;;;;;;;0.47;0.40;;;-0.50;99.90;;;;;;5033470;28;20049;-79
2021/12/25 00:13:57;;;;;;;2.15;0.90;;;-0.50;99.90;;;;;;5015594;28;20060;-79
2021/12/25 00:16:22;;;;;;;1.52;0.88;;;-0.50;99.90;;;;;;5031212;28;20080;-79
2021/12/25 00:18:48;;;;;;;1.02;0.85;;;-0.50;99.90;;;;;;5033808;28;20427;-79
2021/12/25 00:21:13;;;;;;;1.40;1.30;;;-0.60;99.90;;;;;;5033741;28;20078;-79
2021/12/25 00:23:39;;;;;;;3.35;1.30;;;-0.60;99.90;;;;;;5032671;28;20148;-79
2021/12/25 00:26:35;;;;;;;2.72;0.85;;;-0.60;99.90;;;;;;5016424;28;20047;-77
2021/12/25 00:29:03;;;;;;;1.63;1.40;;;-0.60;99.90;;;;;;5015355;28;20057;-76
2021/12/25 00:31:55;;;;;;;1.55;1.15;;;-0.70;99.90;;;;;;5034925;28;20540;-77
2021/12/25 00:34:23;;;;;;;2.55;0.93;;;-0.70;99.90;;;;;;5034965;28;20535;-77
2021/12/25 00:36:49;;;;;;;0.73;0.70;;;-0.70;99.90;;;;;;5034079;28;20053;-78
2021/12/25 00:39:15;;;;;;;3.13;1.13;;;-0.80;99.90;;;;;;5017116;28;20110;-78
2021/12/25 00:41:41;;;;;;;4.00;1.30;;;-0.80;99.90;;;;;;5016787;28;20053;-78
2021/12/25 00:44:07;;;;;;;3.20;1.60;;;-0.90;99.90;;;;;;5033755;28;20143;-78
2021/12/25 00:46:32;;;;;;;1.58;0.93;;;-0.90;99.90;;;;;;5017121;28;20048;-77
2021/12/25 00:48:58;;;;;;;2.85;0.95;;;-0.90;99.90;;;;;;5016520;28;20110;-77
2021/12/25 00:51:23;;;;;;;3.50;1.10;;;-0.90;99.90;;;;;;5034464;28;20095;-77
2021/12/25 00:53:49;;;;;;;8.60;1.58;;;-1.00;99.90;;;;;;5034519;28;20132;-77
2021/12/25 00:56:15;;;;;;;2.47;1.27;;;-1.00;99.90;;;;;;5017239;28;20135;-77
2021/12/25 00:58:40;;;;;;;3.15;1.00;;;-1.00;99.90;;;;;;5016400;28;20148;-76
2021/12/25 01:01:06;;;;;;;1.75;1.10;;;-1.00;99.90;;;;;;5014073;28;20069;-76
2021/12/25 01:03:32;;;;;;;1.30;1.23;;;-1.00;99.90;;;;;;5014521;28;20068;-76
2021/12/25 01:05:57;;;;;;;1.08;1.08;;;-1.10;99.90;;;;;;5014900;28;20049;-76
2021/12/25 01:08:23;;;;;;;3.17;1.67;;;-1.10;99.90;;;;;;5016093;28;20084;-76
2021/12/25 01:10:49;;;;;;;1.35;0.90;;;-1.10;99.90;;;;;;5033969;28;20060;-76
2021/12/25 01:13:23;;;;;;;2.22;0.70;;;-1.10;99.90;;;;;;5033293;28;20071;-75
2021/12/25 01:16:20;;;;;;;1.70;1.10;;;-1.10;99.90;;;;;;5015255;28;20060;-76
2021/12/25 01:19:31;;;;;;;1.40;0.90;;;-1.20;99.90;;;;;;5015739;28;20091;-76
2021/12/25 01:22:05;;;;;;;1.75;1.02;;;-1.20;99.90;;;;;;5015258;28;20409;-75
2021/12/25 01:24:49;;;;;;;1.52;0.65;;;-1.20;99.90;;;;;;5033818;28;20041;-75
2021/12/25 01:30:02;;;;;;;1.27;1.17;;;-0.40;99.90;;;;;;5015914;28;20096;-75
2021/12/25 01:35:39;;;;;;;0.57;0.57;;;-1.40;99.90;;;;;;5027654;28;20715;-75
2021/12/25 01:48:34;;;;;;;0.70;0.70;;;-1.60;99.90;;;;;;5013951;28;20114;-74
2021/12/25 01:51:00;;;;;;;3.03;0.85;;;-1.50;99.90;;;;;;5013870;28;20054;-74
2021/12/25 01:53:26;;;;;;;1.20;1.20;;;-1.60;99.90;;;;;;5011969;28;20060;-74
2021/12/25 01:55:51;;;;;;;0.68;0.68;;;-1.60;99.90;;;;;;5014061;28;20821;-74
2021/12/25 01:58:17;;;;;;;5.15;1.33;;;-1.60;99.90;;;;;;5015504;28;20930;-74
2021/12/25 02:00:47;;;;;;;3.40;1.02;;;-1.60;99.90;;;;;;5019667;28;20140;-74
2021/12/25 02:03:15;;;;;;;0.60;0.60;;;-1.60;99.90;;;;;;5020607;28;20053;-74
2021/12/25 02:05:41;;;;;;;1.20;1.10;;;-1.60;99.90;;;;;;5019339;28;20172;-74
2021/12/25 02:08:08;;;;;;;0.68;0.65;;;-1.70;99.90;;;;;;5019496;28;20057;-74
2021/12/25 02:10:34;;;;;;;1.88;1.33;;;-1.70;99.90;;;;;;5020009;28;20080;-74
2021/12/25 02:13:02;;;;;;;1.30;0.98;;;-1.70;99.90;;;;;;5012110;28;20124;-74
2021/12/25 02:15:29;;;;;;;3.03;1.02;;;-1.70;99.90;;;;;;5018475;28;20053;-74
2021/12/25 02:18:10;;;;;;;0.85;0.85;;;-1.70;99.90;;;;;;5019414;28;20703;-74
2021/12/25 02:20:48;;;;;;;2.35;0.95;;;-1.70;99.90;;;;;;5019787;28;20141;-74
2021/12/25 02:23:21;;;;;;;0.57;0.57;;;-1.80;99.90;;;;;;5019860;28;20387;-74
2021/12/25 02:25:47;;;;;;;3.42;0.80;;;-1.80;99.90;;;;;;5018748;28;20033;-74
2021/12/25 02:28:17;;;;;;;0.82;0.82;;;-1.80;99.90;;;;;;5017822;28;20049;-73
2021/12/25 02:30:45;;;;;;;2.72;1.10;;;-1.80;99.90;;;;;;5020346;28;20096;-74
2021/12/25 02:33:10;;;;;;;0.75;0.75;;;-1.80;99.90;;;;;;5020334;28;20115;-74
2021/12/25 02:35:37;;;;;;;1.60;1.27;;;-1.90;99.90;;;;;;5017646;28;20701;-73
2021/12/25 02:38:03;;;;;;;3.22;1.10;;;-1.90;99.90;;;;;;5018270;28;20127;-73
2021/12/25 02:40:29;;;;;;;1.70;1.10;;;-1.90;99.90;;;;;;5017174;28;20053;-73
2021/12/25 02:42:55;;;;;;;1.50;0.95;;;-2.00;99.90;;;;;;5016947;28;20832;-73
2021/12/25 02:45:22;;;;;;;2.42;0.93;;;-2.00;99.90;;;;;;5018107;28;20056;-73
2021/12/25 02:47:50;;;;;;;0.68;0.68;;;-2.00;99.90;;;;;;5019737;28;20049;-73
2021/12/25 02:50:25;;;;;;;1.77;1.00;;;-2.00;99.90;;;;;;5017201;28;20784;-73
2021/12/25 02:52:52;;;;;;;2.15;0.70;;;-2.00;99.90;;;;;;5020186;28;20408;-73
2021/12/25 02:55:17;;;;;;;1.88;1.08;;;-2.00;99.90;;;;;;5035716;28;20767;-73
2021/12/25 02:57:49;;;;;;;0.77;0.77;;;-2.00;99.90;;;;;;5018857;28;20247;-73
2021/12/25 03:00:19;;;;;;;0.93;0.88;;;-2.10;99.90;;;;;;5019309;28;20060;-73
2021/12/25 03:02:44;;;;;;;1.08;1.00;;;-2.40;99.90;;;;;;5019458;28;20091;-73
2021/12/25 03:05:10;;;;;;;0.82;0.77;;;-2.10;99.90;;;;;;5018435;28;20128;-73
2021/12/25 03:07:36;;;;;;;3.08;1.20;;;-2.10;99.90;;;;;;5018565;28;20199;-72
2021/12/25 03:10:03;;;;;;;1.92;1.60;;;-2.10;99.90;;;;;;5019477;28;20081;-72
2021/12/25 03:12:36;;;;;;;0.80;0.80;;;-2.10;99.90;;;;;;5020044;28;20057;-72
2021/12/25 03:15:12;;;;;;;;;;;-2.20;99.90;;;;;;5019616;28;20105;-72
2021/12/25 03:17:38;;;;;;;1.08;1.08;;;-2.20;99.90;;;;;;5018596;28;19925;-72
2021/12/25 03:20:06;;;;;;;0.93;0.80;;;-2.20;99.90;;;;;;5018723;28;20056;-72
2021/12/25 03:22:32;;;;;;;2.25;1.35;;;-2.20;99.90;;;;;;5020635;28;20053;-72
2021/12/25 03:24:57;;;;;;;1.23;1.23;;;-2.20;99.90;;;;;;5018322;28;20068;-72
2021/12/25 03:27:23;;;;;;;2.53;1.30;;;-2.20;99.90;;;;;;5020487;28;20045;-71
2021/12/25 03:29:49;;;;;;;0.68;0.68;;;-2.20;99.90;;;;;;5018488;28;20344;-72
2021/12/25 03:32:14;;;;;;;1.38;1.08;;;-2.20;99.90;;;;;;5018073;28;20060;-71
2021/12/25 03:34:40;;;;;;;0.80;0.80;;;-2.30;99.90;;;;;;5018657;28;20045;-71
2021/12/25 03:37:06;;;;;;;0.80;0.80;;;-2.30;99.90;;;;;;5020239;28;20176;-72
2021/12/25 03:39:31;;;;;;;1.13;1.02;;;-2.30;99.90;;;;;;5022639;28;20095;-71
2021/12/25 03:41:58;;;;;;;0.80;0.80;;;-3.60;99.90;;;;;;5039556;28;20130;-71
2021/12/25 03:44:25;;;;;;;0.68;0.68;;;-2.40;99.90;;;;;;5039483;28;20044;-71
2021/12/25 03:46:52;;;;;;;1.17;0.63;;;-2.40;99.90;;;;;;5020928;28;20041;-71
2021/12/25 03:49:35;;;;;;;2.17;1.13;;;-2.40;99.90;;;;;;5038467;28;20483;-71
2021/12/25 03:58:05;;;;;;;3.42;1.02;;;-2.50;99.90;;;;;;5021498;28;20068;-70
2021/12/25 04:00:28;;;;;;;0.88;0.88;;;-2.50;99.90;;;;;;5035088;28;20154;-71
2021/12/25 04:02:58;;;;;;;0.70;0.70;;;-2.50;99.90;;;;;;5039926;28;20098;-70
2021/12/25 04:05:28;;;;;;;1.55;0.80;;;-2.50;99.90;;;;;;5039488;28;20045;-70
2021/12/25 04:10:22;;;;;;;0.77;0.65;;;-2.60;99.90;;;;;;5039531;28;20053;-70
2021/12/25 04:12:48;;;;;;;1.17;1.08;;;-2.60;99.90;;;;;;5021173;28;20052;-70
2021/12/25 04:15:14;;;;;;;0.90;0.90;;;-2.60;99.90;;;;;;5020790;28;20053;-70
2021/12/25 04:17:39;;;;;;;1.42;1.33;;;-2.50;99.90;;;;;;5020926;28;20056;-70
2021/12/25 04:20:06;;;;;;;0.90;0.90;;;-3.80;99.90;;;;;;5021578;28;20129;-70
2021/12/25 04:22:42;;;;;;;0.55;0.55;;;-2.60;99.90;;;;;;5039199;28;20454;-70
2021/12/25 04:25:08;;;;;;;1.20;0.70;;;-2.60;99.90;;;;;;5039666;28;20053;-71
2021/12/25 04:27:34;;;;;;;0.73;0.50;;;-2.70;99.90;;;;;;5021697;28;20060;-70
2021/12/25 04:30:05;;;;;;;0.70;0.60;;;-2.70;99.90;;;;;;5038287;28;20048;-70
2021/12/25 04:33:15;;;;;;;1.02;0.80;;;-2.70;99.90;;;;;;5020819;28;20061;-70
2021/12/25 04:49:33;;;;;;;0.63;0.63;;;-2.80;99.90;;;;;;5020672;28;20571;-71
2021/12/25 05:03:00;;;;;;;1.55;0.95;;;-2.80;99.90;;;;;;5020425;28;20114;-71
2021/12/25 05:05:26;;;;;;;1.15;0.95;;;-2.90;99.90;;;;;;5020588;28;20149;-70
2021/12/25 05:07:51;;;;;;;0.65;0.52;;;-2.90;99.90;;;;;;5038432;28;20151;-71
2021/12/25 05:10:17;;;;;;;0.52;0.52;;;-2.90;99.90;;;;;;5037873;28;20045;-70
2021/12/25 05:12:42;;;;;;;0.60;0.60;;;-2.90;99.90;;;;;;5020658;28;20118;-70
2021/12/25 05:15:08;;;;;;;0.70;0.65;;;-2.90;99.90;;;;;;5020393;28;20052;-70
2021/12/25 05:17:34;;;;;;;0.80;0.80;;;-2.90;99.90;;;;;;5037720;28;20060;-70
2021/12/25 05:20:00;;;;;;;1.58;0.93;;;-2.90;99.90;;;;;;5019906;28;20132;-70
2021/12/25 05:22:26;;;;;;;3.65;1.10;;;-2.90;99.90;;;;;;5019910;28;20794;-70
2021/12/25 05:24:52;;;;;;;4.97;1.67;;;-2.90;99.90;;;;;;5019560;28;20416;-70
2021/12/25 05:27:18;;;;;;;1.65;1.45;;;-2.90;99.90;;;;;;5038159;28;20045;-70
2021/12/25 05:29:46;;;;;;;3.47;2.45;;;-2.90;99.90;;;;;;5040961;28;20052;-70
2021/12/25 05:32:17;;;;;;;1.70;1.58;;;-3.00;99.90;;;;;;5024070;28;20053;-70
2021/12/25 05:34:43;;;;;;;5.82;1.10;;;-3.00;99.90;;;;;;5024396;28;20064;-71
2021/12/25 05:37:08;;;;;;;1.20;1.08;;;-3.00;99.90;;;;;;5042442;28;20053;-70
2021/12/25 05:39:34;;;;;;;0.75;0.75;;;-3.00;99.90;;;;;;5023675;28;20060;-70
2021/12/25 05:42:00;;;;;;;2.38;0.85;;;-3.10;99.90;;;;;;5023825;28;20061;-70
2021/12/25 05:44:25;;;;;;;1.23;0.80;;;-3.10;99.90;;;;;;5024041;28;20080;-70
2021/12/25 05:46:51;;;;;;;0.80;0.80;;;-3.10;99.90;;;;;;5023319;28;20083;-70
2021/12/25 05:49:17;;;;;;;1.23;1.00;;;-3.10;99.90;;;;;;5023556;28;20060;-70
2021/12/25 05:51:43;;;;;;;1.42;0.80;;;-3.10;99.90;;;;;;5023734;28;20424;-71
2021/12/25 05:54:09;;;;;;;3.50;0.90;;;-3.10;99.90;;;;;;5023022;28;20044;-70
2021/12/25 05:56:35;;;;;;;1.20;1.20;;;-3.10;99.90;;;;;;5041638;28;20037;-70
2021/12/25 05:59:00;;;;;;;2.50;0.93;;;-3.10;99.90;;;;;;5041376;28;20813;-69
2021/12/25 06:01:27;;;;;;;0.80;0.80;;;-3.10;99.90;;;;;;5023404;28;20370;-70
2021/12/25 06:03:53;;;;;;;0.70;0.70;;;-3.10;99.90;;;;;;5024295;28;20496;-69
2021/12/25 06:06:19;;;;;;;1.02;0.98;;;-3.10;99.90;;;;;;5041057;28;20049;-70
2021/12/25 06:08:44;;;;;;;1.10;1.08;;;-3.20;99.90;;;;;;5041773;28;20056;-70
2021/12/25 06:11:10;;;;;;;0.93;0.93;;;-3.20;99.90;;;;;;5023256;28;20041;-70
2021/12/25 06:13:44;;;;;;;0.90;0.90;;;-3.20;99.90;;;;;;5040598;28;20048;-70
2021/12/25 06:16:10;;;;;;;1.63;1.05;;;-3.20;99.90;;;;;;5041411;28;20049;-70
2021/12/25 06:18:35;;;;;;;3.05;1.00;;;-3.20;99.90;;;;;;5040991;28;20107;-70
2021/12/25 06:21:01;;;;;;;0.80;0.80;;;-3.20;99.90;;;;;;5022143;28;20052;-70
2021/12/25 06:23:29;;;;;;;2.88;1.08;;;-3.20;99.90;;;;;;5022885;28;20055;-70
2021/12/25 06:25:55;;;;;;;0.90;0.82;;;-3.30;99.90;;;;;;5023008;28;20702;-70
2021/12/25 06:28:20;;;;;;;1.13;1.02;;;-3.30;99.90;;;;;;5022052;28;20056;-70
2021/12/25 06:30:47;;;;;;;2.67;0.93;;;-3.30;99.90;;;;;;5023130;28;20381;-69
2021/12/25 06:33:13;;;;;;;2.20;0.85;;;-3.30;99.90;;;;;;5023671;28;20064;-69
2021/12/25 06:35:38;;;;;;;1.75;0.85;;;-3.30;99.90;;;;;;5023008;28;20045;-70
2021/12/25 06:38:04;;;;;;;1.17;0.90;;;-3.30;99.90;;;;;;5023503;28;20068;-69
2021/12/25 06:40:30;;;;;;;0.60;0.60;;;-3.30;99.90;;;;;;5040247;28;20156;-69
2021/12/25 06:42:55;;;;;;;0.82;0.82;;;-3.30;99.90;;;;;;5022277;28;20040;-69
2021/12/25 06:45:21;;;;;;;0.63;0.63;;;-3.40;99.90;;;;;;5023058;28;20049;-69
2021/12/25 06:47:46;;;;;;;1.10;1.10;;;-3.40;99.90;;;;;;5022967;28;20041;-69
2021/12/25 06:50:12;;;;;;;0.93;0.80;;;-3.40;99.90;;;;;;5040302;28;20056;-69
2021/12/25 06:52:38;;;;;;;1.35;0.65;;;-3.40;99.90;;;;;;5020200;28;20048;-69
2021/12/25 06:55:05;;;;;;;1.75;1.00;;;-3.40;99.90;;;;;;5038230;28;20052;-69
2021/12/25 06:57:31;;;;;;;0.30;0.30;;;-3.50;99.90;;;;;;5037082;28;20852;-69
2021/12/25 06:59:57;;;;;;;1.15;0.60;;;-3.50;99.90;;;;;;5019952;28;20053;-70
2021/12/25 07:02:22;;;;;;;0.63;0.63;;;-3.50;99.90;;;;;;5038248;28;20064;-69
2021/12/25 07:04:48;;;;;;;1.23;1.13;;;-3.50;99.90;;;;;;5019191;28;20908;-70
2021/12/25 07:07:16;;;;;;;0.55;0.55;;;-3.50;99.90;;;;;;5038017;28;20049;-69
2021/12/25 07:09:41;;;;;;;2.67;0.85;;;-3.50;99.90;;;;;;5019524;28;20056;-69
2021/12/25 07:12:07;;;;;;;0.80;0.77;;;-3.50;99.90;;;;;;5037800;28;20045;-69
2021/12/25 07:14:33;;;;;;;2.25;0.77;;;-3.50;99.90;;;;;;5037494;28;20049;-69
2021/12/25 07:16:59;;;;;;;0.70;0.70;;;-3.50;99.90;;;;;;5019138;28;20240;-69
2021/12/25 07:19:24;;;;;;;0.82;0.82;;;-3.50;99.90;;;;;;5019695;28;20057;-68
2021/12/25 07:21:50;;;;;;;0.80;0.57;;;-3.50;99.90;;;;;;5037688;28;20098;-69
2021/12/25 07:24:16;;;;;;;0.70;0.70;;;-3.50;99.90;;;;;;5037355;28;20534;-69
2021/12/25 07:26:42;;;;;;;1.95;0.85;;;-3.50;99.90;;;;;;5019716;28;20128;-69
2021/12/25 07:29:08;;;;;;;0.60;0.60;;;-3.50;99.90;;;;;;5037367;28;20061;-69
2021/12/25 07:31:33;;;;;;;0.50;0.50;;;-3.50;99.90;;;;;;5018688;28;20059;-68
2021/12/25 07:33:59;;;;;;;1.05;0.90;;;-3.60;99.90;;;;;;5019300;28;20051;-68
2021/12/25 07:36:25;;;;;;;3.60;1.13;;;-3.60;99.90;;;;;;5018823;28;20543;-68
2021/12/25 07:38:52;;;;;;;1.95;1.65;;;-3.60;99.90;;;;;;5019020;28;20733;-68
2021/12/25 07:41:18;;;;;;;1.25;0.98;;;-3.60;99.90;;;;;;5037387;28;20156;-68
2021/12/25 07:43:44;;;;;;;1.05;1.05;;;-3.60;99.90;;;;;;5019639;28;20060;-68
2021/12/25 07:46:09;;;;;;;2.97;2.00;;;-3.60;99.90;;;;;;5036987;28;20085;-67
2021/12/25 07:48:35;;;;;;;0.90;0.88;;;-3.60;99.90;;;;;;5019249;28;20139;-68
2021/12/25 07:51:02;;;;;;;1.40;1.30;;;-3.60;99.90;;;;;;5018756;28;20482;-68
2021/12/25 07:53:31;;;;;;;2.92;1.58;;;-3.60;99.90;;;;;;5034514;28;20056;-68
2021/12/25 07:55:57;;;;;;;2.50;1.58;;;-3.60;99.90;;;;;;5037005;28;20772;-67
2021/12/25 07:58:23;;;;;;;4.15;1.42;;;-3.60;99.90;;;;;;5034808;28;20045;-68
2021/12/25 08:00:50;;;;;;;0.85;0.85;;;-3.70;99.90;;;;;;5014875;28;20087;-67
2021/12/25 08:03:16;;;;;;;1.13;0.75;;;-3.70;99.90;;;;;;5017771;28;20044;-67
2021/12/25 08:05:42;;;;;;;1.13;0.70;;;-3.70;99.90;;;;;;5017515;28;20061;-67
2021/12/25 08:08:10;;;;;;;0.80;0.80;;;-3.70;99.90;;;;;;5017583;28;20088;-67
2021/12/25 08:10:36;;;;;;;1.52;1.00;;;-3.60;99.90;;;;;;5018181;28;20049;-67
2021/12/25 08:13:02;;;;;;;3.33;1.00;;;-3.70;99.90;;;;;;5017827;28;20044;-67
2021/12/25 08:15:30;;;;;;;0.45;0.45;;;-3.70;99.90;;;;;;5017099;28;20161;-67
2021/12/25 08:17:57;;;;;;;5.45;1.08;;;-3.70;99.90;;;;;;5017227;28;20560;-67
2021/12/25 08:20:24;;;;;;;1.55;0.70;;;-3.40;99.90;;;;;;5018375;28;20107;-67
2021/12/25 08:22:51;;;;;;;1.42;0.70;;;-3.70;99.90;;;;;;5017576;28;20463;-67
2021/12/25 08:25:17;;;;;;;1.63;0.77;;;-3.70;99.90;;;;;;5017858;28;20053;-67
2021/12/25 08:27:45;;;;;;;1.38;0.70;;;-3.70;99.90;;;;;;5035920;28;20079;-67
2021/12/25 08:30:14;;;;;;;0.52;0.52;;;-3.70;99.90;;;;;;5018044;28;20076;-67
2021/12/25 08:32:41;;;;;;;1.98;0.93;;;-3.70;99.90;;;;;;5035727;28;20111;-67
2021/12/25 08:35:08;;;;;;;0.63;0.52;;;-3.70;99.90;;;;;;5017599;28;20048;-67
2021/12/25 08:37:34;;;;;;;1.60;0.47;;;-3.60;99.90;;;;;;5017911;28;20144;-67
2021/12/25 08:40:00;;;;;;;2.38;1.00;;;-3.60;99.90;;;;;;5017545;28;20059;-67
2021/12/25 08:42:26;;;;;;;0.52;0.52;;;-3.60;99.90;;;;;;5014654;28;20751;-68
2021/12/25 08:47:24;;;;;;;1.52;0.65;;;-3.50;99.90;;;;;;5035124;28;20057;-68
2021/12/25 08:49:50;;;;;;;0.52;0.52;;;-3.50;99.90;;;;;;5018877;28;20084;-68
2021/12/25 08:52:17;;;;;;;1.90;0.55;;;-3.40;99.90;;;;;;5019859;28;20053;-68
2021/12/25 08:54:45;;;;;;;2.63;0.98;;;-3.40;99.90;;;;;;5016991;28;20111;-68
2021/12/25 08:57:11;;;;;;;1.13;0.73;;;-3.40;99.90;;;;;;5017614;28;20094;-68
2021/12/25 08:59:38;;;;;;;1.83;1.33;;;-3.30;99.90;;;;;;5035022;28;20606;-69
2021/12/25 09:02:08;;;;;;;1.20;0.80;;;-3.30;99.90;;;;;;5037038;28;20053;-69
2021/12/25 09:04:36;;;;;;;1.05;0.75;;;-3.30;99.90;;;;;;5039648;28;20098;-69
2021/12/25 09:07:03;;;;;;;1.48;1.00;;;-3.20;99.90;;;;;;5023688;28;20057;-70
2021/12/25 09:09:28;;;;;;;0.82;0.73;;;-3.20;99.90;;;;;;5024072;28;20056;-68
2021/12/25 09:11:55;;;;;;;0.90;0.90;;;-3.20;99.90;;;;;;5024438;28;20057;-71
2021/12/25 09:14:21;;;;;;;1.98;1.48;;;-3.20;99.90;;;;;;5041705;28;20045;-71
2021/12/25 09:16:46;;;;;;;1.05;0.90;;;-3.10;99.90;;;;;;5041004;28;20072;-70
2021/12/25 09:19:12;;;;;;;0.68;0.68;;;-3.10;99.90;;;;;;5023939;28;20546;-71
2021/12/25 09:21:38;;;;;;;0.40;0.40;;;-3.00;99.90;;;;;;5023385;28;20059;-72
2021/12/25 09:24:04;;;;;;;1.00;0.95;;;-3.00;99.90;;;;;;5041126;28;20780;-72
2021/12/25 09:26:30;;;;;;;1.60;0.90;;;-3.00;99.90;;;;;;5024321;28;20049;-72
2021/12/25 09:28:55;;;;;;;1.05;0.95;;;-3.00;99.90;;;;;;5024077;28;20873;-72
2021/12/25 09:31:21;;;;;;;0.88;0.88;;;-3.00;99.90;;;;;;5023577;28;20049;-73
2021/12/25 09:33:47;;;;;;;1.13;0.95;;;-3.00;99.90;;;;;;5041339;28;20098;-73
2021/12/25 09:36:12;;;;;;;1.17;1.08;;;-3.00;99.90;;;;;;5024240;28;20053;-73
2021/12/25 09:38:38;;;;;;;2.35;1.00;;;-2.90;99.90;;;;;;5023511;28;20595;-74
2021/12/25 09:41:05;;;;;;;1.85;1.30;;;-2.90;99.90;;;;;;5024649;28;20052;-74
2021/12/25 09:43:32;;;;;;;1.65;1.08;;;-2.80;99.90;;;;;;5024721;28;20083;-74
2021/12/25 09:45:59;;;;;;;1.40;1.30;;;-2.80;99.90;;;;;;5023580;28;20586;-74
2021/12/25 09:48:24;;;;;;;1.15;1.15;;;-2.70;99.90;;;;;;5024194;28;20958;-75
2021/12/25 09:50:50;;;;;;;1.27;1.20;;;-2.70;99.90;;;;;;5024368;28;20076;-76
2021/12/25 09:53:18;;;;;;;1.98;0.80;;;-2.60;99.90;;;;;;5023494;28;20052;-76
2021/12/25 09:55:46;;;;;;;2.70;1.20;;;-2.60;99.90;;;;;;5023561;28;20068;-76
2021/12/25 09:58:12;;;;;;;1.92;1.15;;;-2.50;99.90;;;;;;5023213;28;20037;-76
2021/12/25 10:00:42;;;;;;;1.30;0.88;;;-2.50;99.90;;;;;;5022837;28;20158;-77
2021/12/25 10:03:08;;;;;;;2.97;1.25;;;-2.40;99.90;;;;;;5023517;28;20150;-77
2021/12/25 10:05:41;;;;;;;0.63;0.63;;;-2.30;99.90;;;;;;5022789;28;20571;-78
2021/12/25 10:08:11;;;;;;;1.35;0.95;;;-2.30;99.90;;;;;;5023881;28;20051;-78
2021/12/25 10:10:46;;;;;;;2.22;0.93;;;-2.20;99.90;;;;;;5023841;28;20045;-78
2021/12/25 10:13:31;;;;;;;1.25;1.25;;;-2.20;99.90;;;;;;5023340;28;20044;-79
2021/12/25 10:16:18;;;;;;;0.45;0.45;;;-2.10;99.90;;;;;;5022348;28;20059;-79
2021/12/25 10:18:45;;;;;;;0.95;0.68;;;-1.70;99.90;;;;;;5012971;28;20526;-79
2021/12/25 10:21:18;;;;;;;0.68;0.68;;;-2.10;99.90;;;;;;5022071;28;20053;-79
2021/12/25 10:23:44;;;;;;;0.70;0.70;;;-2.00;99.90;;;;;;5023376;28;20041;-75
2021/12/25 10:26:09;;;;;;;0.75;0.73;;;-2.00;99.90;;;;;;5022990;28;20056;-79
2021/12/25 10:28:38;;;;;;;0.40;0.40;;;-1.90;99.90;;;;;;5022364;28;20068;-79
2021/12/25 10:31:08;;;;;;;1.33;1.25;;;-1.90;99.90;;;;;;5022771;28;20053;-82
2021/12/25 10:33:53;;;;;;;1.65;1.20;;;-1.90;99.90;;;;;;4673514;28;10000354;-81
2021/12/25 10:36:33;;;;;;;1.02;0.90;;;-1.90;99.90;;;;;;5034887;28;20055;-80
2021/12/25 10:39:07;;;;;;;2.90;0.70;;;-1.80;99.90;;;;;;5015751;28;20059;-80
2021/12/25 10:41:35;;;;;;;4.00;0.90;;;-1.80;99.90;;;;;;5033710;28;20048;-78
2021/12/25 10:44:20;;;;;;;3.05;0.93;;;-1.80;99.90;;;;;;5016818;28;20052;-78
2021/12/25 10:46:57;;;;;;;1.30;0.65;;;-1.80;99.90;;;;;;5016550;28;20068;-77
2021/12/25 10:49:38;;;;;;;3.92;1.58;;;-1.70;99.90;;;;;;5034739;28;20714;-77
2021/12/25 10:52:22;;;;;;;1.60;0.90;;;-1.70;99.90;;;;;;5009355;28;20040;-76
2021/12/25 10:54:52;;;;;;;2.28;1.48;;;-1.70;99.90;;;;;;5013020;28;20051;-76
2021/12/25 10:57:41;;;;;;;2.13;0.90;;;-1.70;99.90;;;;;;5035940;28;20072;-76
2021/12/25 11:00:22;;;;;;;1.27;1.20;;;-1.60;99.90;;;;;;5017830;28;20052;-75
2021/12/25 11:02:51;;;;;;;0.82;0.50;;;-1.60;99.90;;;;;;5014612;28;20130;-75
2021/12/25 11:05:38;;;;;;;1.00;0.68;;;-1.60;99.90;;;;;;5017907;28;20081;-75
2021/12/25 11:08:06;;;;;;;2.28;1.17;;;-1.60;99.90;;;;;;5016294;28;20553;-74
2021/12/25 11:10:40;;;;;;;1.40;0.70;;;-1.50;99.90;;;;;;5016472;28;20119;-74
2021/12/25 11:13:22;;;;;;;0.73;0.73;;;-1.50;99.90;;;;;;5013051;28;20125;-74
2021/12/25 11:15:49;;;;;;;1.08;1.08;;;-1.50;99.90;;;;;;5035544;28;20136;-73
2021/12/25 11:18:16;;;;;;;0.88;0.80;;;-1.50;99.90;;;;;;5017343;28;20226;-73
2021/12/25 11:20:43;;;;;;;2.40;1.15;;;-1.40;99.90;;;;;;5033190;28;20561;-73
2021/12/25 11:23:11;;;;;;;0.98;0.52;;;-1.40;99.90;;;;;;5035478;28;20041;-72
2021/12/25 11:25:39;;;;;;;0.63;0.63;;;-0.10;99.90;;;;;;5035813;28;20534;-73
2021/12/25 11:28:09;;;;;;;1.30;0.73;;;-1.40;99.90;;;;;;5017413;28;20894;-72
2021/12/25 11:30:39;;;;;;;0.50;0.50;;;-1.30;99.90;;;;;;5017252;28;20084;-72
2021/12/25 11:33:04;;;;;;;1.85;1.05;;;-1.30;99.90;;;;;;5032776;28;20051;-72
2021/12/25 11:35:34;;;;;;;1.27;0.88;;;-1.30;99.90;;;;;;5035889;28;20036;-72
2021/12/25 11:38:00;;;;;;;2.50;0.93;;;-1.30;99.90;;;;;;5032079;28;20045;-71
2021/12/25 11:40:28;;;;;;;1.15;0.85;;;-1.30;99.90;;;;;;5016847;28;20163;-72
2021/12/25 11:42:57;;;;;;;0.70;0.70;;;-1.30;99.90;;;;;;5017502;28;20086;-72
2021/12/25 11:45:34;;;;;;;0.80;0.75;;;-1.30;99.90;;;;;;5033718;28;20056;-71
2021/12/25 11:48:12;;;;;;;0.98;0.88;;;-1.20;99.90;;;;;;5017041;28;20049;-71
2021/12/25 11:50:42;;;;;;;0.60;0.60;;;-1.20;99.90;;;;;;5016914;28;20049;-71
2021/12/25 11:53:25;;;;;;;0.50;0.50;;;-1.20;99.90;;;;;;5015626;28;20810;-71
2021/12/25 11:58:53;;;;;;;1.00;0.70;;;-1.10;99.90;;;;;;5007786;28;20053;-71
2021/12/25 12:01:35;;;;;;;0.70;0.63;;;-1.10;99.90;;;;;;5013535;28;20053;-71
2021/12/25 12:04:10;;;;;;;2.85;0.95;;;-1.10;99.90;;;;;;5016760;28;20690;-70
2021/12/25 12:06:45;;;;;;;0.80;0.80;;;-1.00;99.90;;;;;;4998150;28;20080;-71
2021/12/25 12:09:50;;;;;;;1.58;0.75;;;-1.10;99.90;;;;;;5016177;28;20059;-70
2021/12/25 12:12:23;;;;;;;1.23;0.80;;;-1.00;99.90;;;;;;5034719;28;20845;-70
2021/12/25 12:15:16;;;;;;;3.95;1.65;;;-1.00;99.90;;;;;;5033470;28;20050;-70
2021/12/25 12:17:43;;;;;;;3.38;1.10;;;-1.00;99.90;;;;;;5014283;28;20123;-70
2021/12/25 12:20:16;;;;;;;1.95;1.10;;;-1.00;99.90;;;;;;5028848;28;20075;-70
2021/12/25 12:22:54;;;;;;;0.60;0.60;;;-0.90;99.90;;;;;;5015724;28;20130;-70
2021/12/25 12:27:59;;;;;;;1.85;0.73;;;-0.90;99.90;;;;;;5015743;28;20056;-69
2021/12/25 12:30:31;;;;;;;0.80;0.80;;;-0.90;99.90;;;;;;5034349;28;20033;-69
2021/12/25 12:33:03;;;;;;;0.82;0.80;;;-0.90;99.90;;;;;;5035413;28;20133;-69
2021/12/25 12:35:40;;;;;;;0.95;0.88;;;-0.80;99.90;;;;;;5019102;28;20052;-67
2021/12/25 12:41:18;;;;;;;1.85;1.30;;;-0.90;99.90;;;;;;5019070;28;20057;-69
2021/12/25 12:44:04;;;;;;;0.93;0.68;;;-0.80;99.90;;;;;;5011609;28;20045;-69
2021/12/25 12:46:48;;;;;;;0.77;0.77;;;0.60;99.90;;;;;;5015104;28;20049;-68
2021/12/25 12:49:16;;;;;;;1.85;0.93;;;-0.80;99.90;;;;;;5032121;28;20073;-68
2021/12/25 12:51:43;;;;;;;0.55;0.55;;;-0.80;99.90;;;;;;5015994;28;20053;-69
2021/12/25 12:54:09;;;;;;;1.02;0.82;;;-0.80;99.90;;;;;;5016344;28;20080;-68
2021/12/25 12:56:36;;;;;;;1.48;1.15;;;-0.80;99.90;;;;;;5018194;28;20080;-68
2021/12/25 12:59:04;;;;;;;0.95;0.80;;;-0.80;99.90;;;;;;5034542;28;20127;-68
2021/12/25 13:01:29;;;;;;;0.75;0.75;;;-0.80;99.90;;;;;;5016807;28;20102;-68
2021/12/25 13:03:56;;;;;;;1.73;0.70;;;-0.80;99.90;;;;;;5017820;28;20057;-68
2021/12/25 13:06:26;;;;;;;1.85;1.27;;;-0.80;99.90;;;;;;5035351;28;20579;-68
2021/12/25 13:08:52;;;;;;;2.78;1.60;;;-0.90;99.90;;;;;;5032025;28;20095;-68
2021/12/25 13:11:33;;;;;;;5.72;0.88;;;-0.90;99.90;;;;;;5016772;28;20759;-68
2021/12/25 13:14:03;;;;;;;2.78;0.82;;;-0.90;99.90;;;;;;5017266;28;20080;-68
2021/12/25 13:16:43;;;;;;;0.40;0.40;;;-0.90;99.90;;;;;;5015997;28;20128;-68
2021/12/25 13:19:09;;;;;;;1.50;1.00;;;-0.90;99.90;;;;;;5035551;28;20094;-67
2021/12/25 13:21:36;;;;;;;1.00;0.90;;;-0.90;99.90;;;;;;5017711;28;20160;-67
2021/12/25 13:24:13;;;;;;;1.27;1.02;;;-0.90;99.90;;;;;;5034441;28;20099;-67
2021/12/25 13:26:42;;;;;;;0.70;0.70;;;-0.90;99.90;;;;;;5016534;28;20484;-66
2021/12/25 13:29:14;;;;;;;2.38;1.00;;;-0.90;99.90;;;;;;5016574;28;20053;-66
2021/12/25 13:31:42;;;;;;;0.63;0.63;;;-0.90;99.90;;;;;;5016887;28;20045;-66
2021/12/25 13:34:15;;;;;;;1.75;0.90;;;-0.90;99.90;;;;;;5017091;28;20131;-67
2021/12/25 13:36:54;;;;;;;1.35;1.10;;;-0.90;99.90;;;;;;5034050;28;20107;-66
2021/12/25 13:39:25;;;;;;;2.17;2.08;;;-1.00;99.90;;;;;;5017373;28;20082;-66
2021/12/25 13:41:54;;;;;;;2.30;2.10;;;-0.90;99.90;;;;;;5017371;28;20059;-66
2021/12/25 13:44:34;;;;;;;4.18;3.25;;;-0.90;99.90;;;;;;5032362;28;20041;-66
2021/12/25 13:47:21;;;;;;;5.10;2.67;;;-1.00;99.90;;;;;;5012247;28;20055;-66
2021/12/25 13:49:52;;;;;;;6.10;2.65;;;-1.00;99.90;;;;;;5031687;28;20151;-66
2021/12/25 13:52:20;;;;;;;4.70;1.90;;;-1.00;99.90;;;;;;5019689;28;20072;-67
2021/12/25 13:55:17;;;;;;;4.75;2.53;;;-1.00;99.90;;;;;;5039350;28;20861;-66
2021/12/25 13:57:49;;;;;;;4.25;1.83;;;-1.00;99.90;;;;;;5013778;28;20142;-66
2021/12/25 14:00:17;;;;;;;4.15;1.90;;;-1.00;99.90;;;;;;5020101;28;20170;-69